Time;durP1;ratioP1;P1;durP2;ratioP2;P2;SDS_P1;SDS_P2;PMS_P1;PMS_P2;Temp;Humidity;BMP_temperature;BMP_pressure;BME280_temperature;BME280_humidity;BME280_pressure;Samples;Min_cycle;Max_cycle;Signal;HPM_P1;HPM_P2
2022/03/17 00:01:55;;;;;;;;;7.00;4.75;;;;;12.65;63.81;101492.41;6271860;22;45756;-78
2022/03/17 00:04:21;;;;;;;;;6.00;5.00;;;;;12.70;64.12;101510.50;6272404;22;45664;-78
2022/03/17 00:06:47;;;;;;;;;5.50;5.00;;;;;12.67;64.19;101521.25;6270699;22;46344;-77
2022/03/17 00:09:13;;;;;;;;;7.50;6.75;;;;;12.65;64.21;101526.59;6269355;22;47059;-76
2022/03/17 00:11:38;;;;;;;;;5.00;5.00;;;;;12.59;64.04;101519.09;6243786;22;45570;-76
2022/03/17 00:14:04;;;;;;;;;7.25;7.25;;;;;12.66;64.08;101537.97;6272035;22;45770;-77
2022/03/17 00:16:30;;;;;;;;;10.75;10.00;;;;;12.50;64.18;101511.81;6270853;22;45669;-78
2022/03/17 00:18:56;;;;;;;;;10.25;8.50;;;;;12.64;64.40;101540.69;6271545;22;46008;-77
2022/03/17 00:21:22;;;;;;;;;8.25;8.25;;;;;12.65;64.30;101537.13;6271464;22;45511;-76
2022/03/17 00:23:50;;;;;;;;;10.75;10.00;;;;;12.67;64.33;101539.66;6271668;22;45533;-77
2022/03/17 00:29:38;;;;;;;;;10.75;10.00;;;;;12.65;64.37;101547.63;6271560;22;45766;-79
2022/03/17 00:32:05;;;;;;;;;12.00;11.75;;;;;12.59;64.17;101553.28;6271574;22;46067;-77
2022/03/17 00:34:31;;;;;;;;;12.50;10.00;;;;;12.44;64.15;101536.72;6271590;22;45503;-78
2022/03/17 00:36:57;;;;;;;;;10.75;10.25;;;;;12.53;64.31;101569.44;6270893;22;45633;-77
2022/03/17 00:39:23;;;;;;;;;11.75;11.00;;;;;12.47;64.13;101565.41;6271386;22;46121;-77
2022/03/17 00:45:10;;;;;;;;;17.50;15.00;;;;;12.44;65.05;101576.13;6271881;22;45497;-78
2022/03/17 00:47:37;;;;;;;;;14.50;14.50;;;;;12.43;65.09;101602.50;6270948;22;46800;-77
2022/03/17 00:50:03;;;;;;;;;16.25;16.00;;;;;12.40;65.02;101582.53;6271376;22;45998;-78
2022/03/17 00:52:29;;;;;;;;;22.25;17.75;;;;;12.36;65.35;101586.28;6271742;22;45495;-77
2022/03/17 00:54:54;;;;;;;;;15.50;15.25;;;;;12.32;65.13;101590.03;6271646;22;45782;-77
2022/03/17 01:00:41;;;;;;;;;16.75;14.25;;;;;12.24;65.25;101586.22;6271299;22;46066;-78
2022/03/17 01:03:06;;;;;;;;;18.75;17.50;;;;;12.27;65.62;101600.00;6271268;22;45546;-77
2022/03/17 01:05:32;;;;;;;;;20.00;17.25;;;;;12.29;65.43;101608.63;6271347;22;45700;-78
2022/03/17 01:07:58;;;;;;;;;15.25;13.00;;;;;12.27;65.73;101609.66;6271748;22;46373;-77
2022/03/17 01:10:23;;;;;;;;;19.75;17.25;;;;;12.26;65.38;101593.03;6269357;22;47337;-78
2022/03/17 01:16:10;;;;;;;;;17.25;15.50;;;;;12.13;65.63;101592.13;6269922;22;45484;-77
2022/03/17 01:18:36;;;;;;;;;20.75;17.00;;;;;12.24;65.91;101646.66;6271269;22;46040;-77
2022/03/17 01:21:01;;;;;;;;;18.25;17.25;;;;;12.21;65.61;101621.38;6270855;22;46024;-75
2022/03/17 01:23:27;;;;;;;;;18.00;17.00;;;;;12.19;65.80;101618.88;6270760;22;45518;-78
2022/03/17 01:25:52;;;;;;;;;18.50;17.50;;;;;12.18;65.91;101627.69;6272051;22;45743;-77
2022/03/17 01:31:40;;;;;;;;;20.50;19.50;;;;;12.15;65.86;101619.97;6271098;22;46027;-74
2022/03/17 01:34:05;;;;;;;;;20.75;18.00;;;;;12.21;65.79;101629.28;6271011;22;45665;-77
2022/03/17 01:36:31;;;;;;;;;19.50;16.50;;;;;12.18;66.25;101647.88;6271244;22;45773;-77
2022/03/17 01:38:57;;;;;;;;;21.75;16.25;;;;;12.17;65.96;101649.66;6271044;22;46074;-78
2022/03/17 01:41:23;;;;;;;;;20.25;16.25;;;;;12.02;66.14;101613.81;6270957;22;46812;-77
2022/03/17 01:47:28;;;;;;;;;18.25;15.75;;;;;12.14;66.39;101641.13;6271139;22;45449;-78
2022/03/17 01:50:13;;;;;;;;;19.50;16.00;;;;;12.12;66.04;101646.44;6270846;22;46788;-78
2022/03/17 01:52:39;;;;;;;;;22.25;17.50;;;;;12.10;66.34;101645.69;6270769;22;46980;-78
2022/03/17 01:55:06;;;;;;;;;21.75;19.50;;;;;12.10;66.04;101665.84;6271064;22;45479;-77
2022/03/17 01:57:32;;;;;;;;;21.00;19.75;;;;;12.06;66.31;101665.22;6243534;22;45948;-76
2022/03/17 02:00:00;;;;;;;;;17.50;16.25;;;;;12.03;66.41;101660.16;6271777;22;45539;-76
2022/03/17 02:02:26;;;;;;;;;20.25;18.00;;;;;12.01;66.45;101662.00;6270711;22;46205;-78
2022/03/17 02:04:52;;;;;;;;;23.00;21.50;;;;;11.92;66.76;101651.22;6270805;22;45594;-77
2022/03/17 02:07:18;;;;;;;;;17.75;16.25;;;;;11.95;66.68;101672.88;6270585;22;45836;-78
2022/03/17 02:09:44;;;;;;;;;14.50;14.25;;;;;11.97;66.63;101675.44;6270958;22;45602;-77
2022/03/17 02:15:03;;;;;;;;;19.25;18.75;;;;;11.93;66.66;101687.06;6270900;22;45841;-77
2022/03/17 02:17:31;;;;;;;;;17.25;15.50;;;;;11.85;67.02;101681.41;6271560;22;45436;-77
2022/03/17 02:20:02;;;;;;;;;16.75;16.00;;;;;11.86;67.08;101711.97;6270998;22;47297;-76
2022/03/17 02:22:29;;;;;;;;;19.75;18.00;;;;;11.84;66.90;101698.94;6271766;22;46048;-77
2022/03/17 02:27:47;;;;;;;;;21.50;20.00;;;;;11.83;66.80;101707.75;6270863;22;45523;-77
2022/03/17 02:30:16;;;;;;;;;20.75;18.50;;;;;11.85;66.93;101705.88;6270529;22;46820;-77
2022/03/17 02:32:42;;;;;;;;;19.00;17.00;;;;;11.81;66.96;101711.41;6270714;22;46219;-78
2022/03/17 02:35:13;;;;;;;;;19.25;17.50;;;;;11.83;67.08;101701.63;6270755;22;46153;-77
2022/03/17 02:37:39;;;;;;;;;13.25;10.25;;;;;11.87;66.90;101705.81;6243633;22;45535;-77
2022/03/17 02:40:08;;;;;;;;;18.25;16.25;;;;;11.85;66.96;101703.25;6270646;22;46880;-77
2022/03/17 02:42:37;;;;;;;;;20.00;18.75;;;;;11.84;67.03;101693.69;6270626;22;46311;-76
2022/03/17 02:45:04;;;;;;;;;24.50;20.50;;;;;11.82;67.06;101697.34;6271469;22;45692;-77
2022/03/17 02:47:30;;;;;;;;;18.75;17.25;;;;;11.75;66.80;101695.09;6268993;22;45781;-77
2022/03/17 02:49:56;;;;;;;;;18.50;16.50;;;;;11.86;66.96;101723.34;6270403;22;47145;-76
2022/03/17 02:52:22;;;;;;;;;17.75;16.50;;;;;11.86;66.84;101730.38;6242996;22;47171;-76
2022/03/17 02:54:49;;;;;;;;;18.75;17.50;;;;;11.81;66.95;101724.53;6271179;22;45573;-77
2022/03/17 02:57:14;;;;;;;;;20.25;18.50;;;;;11.86;66.79;101728.59;6270922;22;45766;-77
2022/03/17 03:03:02;;;;;;;;;20.00;18.50;;;;;11.87;66.79;101719.78;6270783;22;45911;-77
2022/03/17 03:05:28;;;;;;;;;17.25;16.00;;;;;11.87;66.63;101732.91;6271380;22;45524;-76
2022/03/17 03:07:54;;;;;;;;;12.00;8.75;;;;;11.81;66.83;101735.88;6270391;22;45498;-76
2022/03/17 03:10:20;;;;;;;;;18.25;16.25;;;;;11.84;66.89;101734.84;6271040;22;45654;-77
2022/03/17 03:12:46;;;;;;;;;14.25;13.75;;;;;11.87;66.79;101753.91;6270200;22;47562;-77
2022/03/17 03:15:12;;;;;;;;;19.75;19.00;;;;;11.70;66.71;101719.88;6242695;22;45961;-77
2022/03/17 03:17:37;;;;;;;;;19.25;15.25;;;;;11.78;66.43;101743.94;6270650;22;45908;-77
2022/03/17 03:20:03;;;;;;;;;14.75;13.75;;;;;11.73;66.63;101738.94;6270247;22;46375;-77
2022/03/17 03:22:29;;;;;;;;;15.75;15.50;;;;;11.74;66.84;101742.41;6270024;22;47411;-76
2022/03/17 03:24:57;;;;;;;;;21.50;18.75;;;;;11.74;66.52;101756.41;6271077;22;45711;-78
2022/03/17 03:27:27;;;;;;;;;21.25;19.00;;;;;11.70;66.58;101752.22;6270604;22;45629;-77
2022/03/17 03:33:14;;;;;;;;;17.75;15.50;;;;;11.63;66.27;101755.28;6270670;22;46047;-77
2022/03/17 03:38:23;;;;;;;;;17.00;15.50;;;;;11.59;66.27;101780.03;6270711;22;45522;-77
2022/03/17 03:40:48;;;;;;;;;16.75;15.25;;;;;11.51;66.14;101769.09;6271127;22;46105;-76
2022/03/17 03:43:14;;;;;;;;;15.25;15.00;;;;;11.55;66.00;101783.75;6270838;22;46379;-78
2022/03/17 03:45:39;;;;;;;;;13.25;12.50;;;;;11.52;65.94;101784.75;6270790;22;45604;-78
2022/03/17 03:48:04;;;;;;;;;16.00;15.25;;;;;11.50;65.86;101807.59;6270758;22;45619;-77
2022/03/17 03:50:31;;;;;;;;;16.00;14.25;;;;;11.47;65.87;101806.94;6242777;22;48043;-78
2022/03/17 03:52:57;;;;;;;;;19.75;15.25;;;;;11.44;65.59;101818.47;6271307;22;46168;-76
2022/03/17 03:55:23;;;;;;;;;13.25;13.25;;;;;11.40;65.86;101824.78;6270377;22;45895;-76
2022/03/17 03:57:48;;;;;;;;;10.00;9.75;;;;;11.37;65.72;101824.97;6270790;22;45854;-77
2022/03/17 04:02:58;;;;;;;;;13.75;13.75;;;;;11.29;65.58;101825.38;6270537;22;45639;-78
2022/03/17 04:05:27;;;;;;;;;18.50;17.75;;;;;11.26;65.56;101835.22;6270656;22;45725;-78
2022/03/17 04:07:54;;;;;;;;;15.50;14.00;;;;;11.28;65.36;101835.97;6270229;22;45689;-77
2022/03/17 04:10:20;;;;;;;;;16.50;13.75;;;;;11.25;65.27;101841.38;6269909;22;46701;-77
2022/03/17 04:12:45;;;;;;;;;14.50;12.00;;;;;11.19;64.98;101852.19;6270172;22;46209;-78
2022/03/17 04:18:46;;;;;;;;;7.25;6.50;;;;;11.10;63.94;101863.19;6265790;22;45622;-78
2022/03/17 04:21:11;;;;;;;;;4.50;3.50;;;;;11.04;63.86;101860.88;6270930;22;45596;-77
2022/03/17 04:23:36;;;;;;;;;11.75;8.50;;;;;10.97;63.94;101898.84;6269890;22;47008;-75
2022/03/17 04:26:02;;;;;;;;;9.50;9.00;;;;;10.90;63.84;101869.50;6270269;22;45671;-77
2022/03/17 04:28:27;;;;;;;;;11.50;6.50;;;;;10.89;64.09;101873.88;6269914;22;45524;-78
2022/03/17 04:30:52;;;;;;;;;9.50;8.00;;;;;10.82;63.96;101877.75;6268375;22;48341;-77
2022/03/17 04:33:18;;;;;;;;;8.75;8.25;;;;;10.81;64.08;101875.19;6242724;22;47172;-76
2022/03/17 04:35:43;;;;;;;;;10.00;8.50;;;;;10.78;64.22;101880.59;6244898;22;45484;-76
2022/03/17 04:38:09;;;;;;;;;7.25;5.00;;;;;10.80;64.05;101884.81;6271710;22;45896;-77
2022/03/17 04:40:34;;;;;;;;;9.75;8.00;;;;;10.78;64.22;101891.94;6271783;22;45920;-78
2022/03/17 04:43:00;;;;;;;;;8.50;8.00;;;;;10.76;64.42;101888.53;6271911;22;46981;-77
2022/03/17 04:45:25;;;;;;;;;11.00;10.00;;;;;10.77;64.38;101897.25;6271825;22;45608;-77
2022/03/17 04:47:51;;;;;;;;;10.00;9.00;;;;;10.76;64.16;101914.75;6271808;22;45577;-77
2022/03/17 04:50:16;;;;;;;;;11.00;8.50;;;;;10.74;64.38;101913.16;6271783;22;46429;-77
2022/03/17 04:55:25;;;;;;;;;9.50;8.50;;;;;10.56;64.34;101886.09;6273088;22;45482;-77
2022/03/17 04:57:51;;;;;;;;;10.00;8.50;;;;;10.71;64.52;101908.03;6273773;22;45539;-78
2022/03/17 05:03:39;;;;;;;;;11.00;8.00;;;;;10.67;64.54;101919.63;6272349;22;46121;-77
2022/03/17 05:06:05;;;;;;;;;11.50;9.50;;;;;10.63;64.42;101918.94;6271207;22;45829;-77
2022/03/17 05:08:35;;;;;;;;;9.50;7.50;;;;;10.63;64.07;101925.94;6272855;22;45697;-76
2022/03/17 05:11:02;;;;;;;;;10.75;8.50;;;;;10.63;64.42;101942.53;6272579;22;46407;-77
2022/03/17 05:13:28;;;;;;;;;8.00;8.00;;;;;10.61;64.28;101931.25;6271836;22;46195;-77
2022/03/17 05:15:54;;;;;;;;;7.50;7.50;;;;;10.63;64.27;101937.28;6272472;22;45638;-77
2022/03/17 05:18:20;;;;;;;;;8.00;7.25;;;;;10.63;64.06;101946.91;6271375;22;45724;-79
2022/03/17 05:20:46;;;;;;;;;8.00;7.00;;;;;10.61;64.16;101951.38;6271319;22;45509;-77
2022/03/17 05:23:17;;;;;;;;;7.75;6.25;;;;;10.61;64.17;101948.75;6271794;22;46341;-77
2022/03/17 05:25:44;;;;;;;;;7.25;6.50;;;;;10.49;64.05;101953.66;6270805;22;45755;-76
2022/03/17 05:28:10;;;;;;;;;7.50;7.50;;;;;10.53;64.05;101956.97;6271409;22;45866;-78
2022/03/17 05:33:57;;;;;;;;;8.00;7.00;;;;;10.53;64.16;101985.81;6271532;22;45606;-76
2022/03/17 05:36:25;;;;;;;;;8.00;7.00;;;;;10.48;64.52;101969.47;6271050;22;45566;-76
2022/03/17 05:38:50;;;;;;;;;8.25;7.00;;;;;10.48;64.58;101975.56;6272448;22;45575;-76
2022/03/17 05:41:16;;;;;;;;;8.00;6.50;;;;;10.47;64.56;101981.72;6271683;22;46998;-77
2022/03/17 05:43:41;;;;;;;;;9.50;7.75;;;;;10.45;64.58;101988.81;6272007;22;46060;-78
2022/03/17 05:46:07;;;;;;;;;5.75;4.25;;;;;10.43;64.52;101981.94;6271458;22;45484;-78
2022/03/17 05:48:32;;;;;;;;;11.25;8.75;;;;;10.43;64.59;102014.22;6272280;22;45422;-77
2022/03/17 05:50:57;;;;;;;;;7.75;7.25;;;;;10.34;64.52;101979.75;6272120;22;45595;-77
2022/03/17 05:53:23;;;;;;;;;7.25;6.75;;;;;10.39;64.54;101988.25;6270873;22;47301;-77
2022/03/17 05:55:48;;;;;;;;;7.25;7.00;;;;;10.37;64.66;102008.41;6271023;22;45511;-77
2022/03/17 05:58:13;;;;;;;;;8.00;7.00;;;;;10.35;64.54;102028.63;6243670;22;45551;-77
2022/03/17 06:04:02;;;;;;;;;8.00;8.00;;;;;10.22;64.61;102014.41;6272161;22;45983;-78
2022/03/17 06:06:27;;;;;;;;;8.00;7.75;;;;;10.27;64.37;102038.59;6271338;22;46098;-77
2022/03/17 06:08:52;;;;;;;;;7.00;6.00;;;;;10.27;64.37;102043.84;6270090;22;45817;-76
2022/03/17 06:11:18;;;;;;;;;7.75;6.00;;;;;10.26;64.39;102021.19;6271765;22;45575;-77
2022/03/17 06:13:43;;;;;;;;;6.50;4.50;;;;;10.25;64.30;102032.59;6271257;22;45919;-77
2022/03/17 06:19:31;;;;;;;;;5.50;5.50;;;;;10.16;64.47;102046.94;6265802;22;45701;-77
2022/03/17 06:21:58;;;;;;;;;6.25;5.75;;;;;10.19;64.66;102054.69;6271499;22;45630;-78
2022/03/17 06:24:24;;;;;;;;;7.75;7.25;;;;;10.18;64.13;102059.97;6270760;22;46430;-77
2022/03/17 06:26:50;;;;;;;;;6.50;6.00;;;;;10.13;64.46;102065.41;6243975;22;45646;-76
2022/03/17 06:29:15;;;;;;;;;7.00;6.25;;;;;10.15;64.38;102081.06;6269290;22;45760;-78
2022/03/17 06:31:40;;;;;;;;;8.00;6.50;;;;;10.15;64.24;102071.41;6270570;22;46462;-77
2022/03/17 06:34:06;;;;;;;;;6.75;6.75;;;;;10.14;64.11;102085.44;6244142;22;46060;-78
2022/03/17 06:36:33;;;;;;;;;9.25;6.25;;;;;10.14;63.99;102109.00;6270671;22;45753;-76
2022/03/17 06:38:59;;;;;;;;;5.25;2.50;;;;;10.13;63.51;102094.22;6271849;22;45569;-77
2022/03/17 06:41:24;;;;;;;;;5.00;5.00;;;;;10.10;63.64;102092.56;6271079;22;46502;-77
2022/03/17 06:43:50;;;;;;;;;6.00;6.00;;;;;10.03;63.34;102096.41;6270674;22;46113;-77
2022/03/17 06:49:37;;;;;;;;;6.25;5.00;;;;;9.97;62.73;102116.75;6271472;22;45610;-77
2022/03/17 06:52:02;;;;;;;;;7.50;3.75;;;;;10.03;62.98;102140.06;6271777;22;45608;-78
2022/03/17 06:54:28;;;;;;;;;6.50;6.00;;;;;10.00;62.80;102159.38;6271166;22;47066;-79
2022/03/17 06:56:53;;;;;;;;;5.75;3.25;;;;;9.97;62.54;102145.56;6271312;22;45895;-80
2022/03/17 06:59:20;;;;;;;;;3.50;3.50;;;;;9.83;62.15;102130.44;6271534;22;45538;-79
2022/03/17 07:01:47;;;;;;;;;2.25;2.25;;;;;9.72;62.28;102137.09;6271145;22;46257;-78
2022/03/17 07:04:13;;;;;;;;;8.25;7.00;;;;;9.86;62.55;102166.13;6270945;22;47068;-78
2022/03/17 07:06:38;;;;;;;;;6.25;6.00;;;;;9.80;62.60;102142.81;6217376;22;45509;-77
2022/03/17 07:09:04;;;;;;;;;8.50;7.00;;;;;9.74;62.32;102149.16;6271140;22;45799;-78
2022/03/17 07:11:29;;;;;;;;;5.00;4.00;;;;;9.82;61.93;102173.25;6270606;22;46265;-77
2022/03/17 07:13:55;;;;;;;;;5.50;5.00;;;;;9.81;62.21;102161.09;6270629;22;47502;-77
2022/03/17 07:19:42;;;;;;;;;5.75;5.75;;;;;9.81;62.33;102179.41;6269768;22;45615;-77
2022/03/17 07:22:07;;;;;;;;;5.00;3.50;;;;;9.82;62.44;102191.59;6271536;22;45608;-78
2022/03/17 07:24:32;;;;;;;;;5.75;5.75;;;;;9.84;62.05;102191.50;6271090;22;46347;-77
2022/03/17 07:26:59;;;;;;;;;6.00;5.00;;;;;9.81;62.22;102181.19;6270802;22;45594;-78
2022/03/17 07:29:24;;;;;;;;;5.75;3.75;;;;;9.86;62.14;102203.63;6271829;22;45842;-78
2022/03/17 07:31:49;;;;;;;;;5.00;4.25;;;;;9.89;61.89;102192.16;6270273;22;46445;-77
2022/03/17 07:34:15;;;;;;;;;8.50;4.25;;;;;9.86;61.63;102193.16;6270252;22;45666;-78
2022/03/17 07:36:40;;;;;;;;;4.50;3.00;;;;;9.89;61.57;102213.94;6270719;22;45542;-78
2022/03/17 07:39:06;;;;;;;;;7.75;7.00;;;;;9.87;61.65;102215.78;6270791;22;45817;-78
2022/03/17 07:41:32;;;;;;;;;6.25;4.75;;;;;9.88;61.44;102216.66;6270512;22;47319;-77
2022/03/17 07:43:57;;;;;;;;;7.75;5.25;;;;;9.87;61.63;102210.56;6242984;22;46847;-76
2022/03/17 07:49:44;;;;;;;;;4.00;3.00;;;;;9.90;61.36;102214.81;6271143;22;45518;-77
2022/03/17 07:52:10;;;;;;;;;5.50;5.50;;;;;9.85;61.43;102198.44;6270303;22;46622;-76
2022/03/17 07:54:35;;;;;;;;;8.00;6.75;;;;;9.84;61.62;102202.81;6270744;22;45967;-76
2022/03/17 07:57:03;;;;;;;;;2.75;2.50;;;;;9.95;61.44;102225.94;6270528;22;45547;-77
2022/03/17 07:59:29;;;;;;;;;5.25;3.00;;;;;9.98;61.31;102233.66;6270858;22;45539;-77
2022/03/17 08:05:16;;;;;;;;;2.75;2.75;;;;;9.99;61.31;102254.53;6270223;22;46067;-78
2022/03/17 08:07:42;;;;;;;;;7.00;7.00;;;;;9.95;61.23;102236.41;6269565;22;45667;-78
2022/03/17 08:10:09;;;;;;;;;6.75;6.00;;;;;10.00;61.17;102242.28;6272413;22;45756;-78
2022/03/17 08:12:34;;;;;;;;;6.00;4.50;;;;;10.00;61.12;102247.53;6271556;22;47086;-77
2022/03/17 08:15:05;;;;;;;;;7.00;6.00;;;;;10.00;60.96;102255.38;6271502;22;46017;-77
2022/03/17 08:17:30;;;;;;;;;4.75;4.75;;;;;9.99;60.89;102246.66;6271921;22;45562;-77
2022/03/17 08:19:55;;;;;;;;;6.00;5.00;;;;;10.00;60.92;102253.63;6271748;22;45848;-77
2022/03/17 08:22:21;;;;;;;;;6.00;6.00;;;;;9.99;60.99;102251.06;6270908;22;45801;-77
2022/03/17 08:24:46;;;;;;;;;4.25;4.00;;;;;10.07;60.87;102278.63;6272199;22;45521;-75
2022/03/17 08:27:12;;;;;;;;;7.50;6.00;;;;;10.09;61.08;102283.81;6270957;22;45725;-77
2022/03/17 08:29:40;;;;;;;;;6.00;6.00;;;;;10.09;60.71;102291.69;6271439;22;45692;-76
2022/03/17 08:35:28;;;;;;;;;7.25;6.00;;;;;10.09;60.73;102279.41;6271708;22;45851;-76
2022/03/17 08:37:54;;;;;;;;;5.25;4.75;;;;;10.05;60.50;102276.97;6271709;22;45498;-76
2022/03/17 08:40:19;;;;;;;;;6.50;3.75;;;;;10.11;59.81;102311.63;6272317;22;45618;-77
2022/03/17 08:42:45;;;;;;;;;6.00;6.00;;;;;10.09;60.21;102296.91;6272167;22;45624;-77
2022/03/17 08:50:55;;;;;;;;;5.00;4.25;;;;;10.13;59.66;102321.19;6260603;22;45624;-77
2022/03/17 08:53:20;;;;;;;;;6.25;5.00;;;;;10.08;59.85;102321.38;6271182;22;46994;-77
2022/03/17 08:55:46;;;;;;;;;7.00;6.00;;;;;10.04;60.01;102325.06;6271525;22;45568;-78
2022/03/17 08:58:12;;;;;;;;;9.25;6.00;;;;;10.13;59.62;102343.00;6269680;22;45710;-78
2022/03/17 09:00:40;;;;;;;;;6.75;6.50;;;;;10.15;59.57;102343.75;6271416;22;45578;-77
2022/03/17 09:03:07;;;;;;;;;4.25;3.00;;;;;10.17;59.88;102341.97;6270948;22;47498;-77
2022/03/17 09:05:33;;;;;;;;;5.75;5.00;;;;;10.21;59.91;102345.31;6271241;22;47112;-76
2022/03/17 09:07:59;;;;;;;;;7.50;6.00;;;;;10.23;59.70;102341.72;6271250;22;45529;-78
2022/03/17 09:10:25;;;;;;;;;9.50;8.50;;;;;10.22;59.41;102347.03;6271464;22;45740;-77
2022/03/17 09:12:57;;;;;;;;;9.75;9.75;;;;;10.24;59.45;102348.69;6271074;22;46145;-78
2022/03/17 09:15:24;;;;;;;;;8.25;6.50;;;;;10.27;59.49;102351.16;6270923;22;45545;-78
2022/03/17 09:17:50;;;;;;;;;7.00;7.00;;;;;10.28;59.53;102360.72;6270720;22;45494;-77
2022/03/17 09:20:16;;;;;;;;;8.00;7.00;;;;;10.25;59.35;102360.88;6270375;22;45543;-75
2022/03/17 09:22:44;;;;;;;;;9.50;6.00;;;;;10.30;59.18;102355.44;6271114;22;46718;-79
2022/03/17 09:25:11;;;;;;;;;8.00;6.75;;;;;10.28;59.10;102362.50;6269444;22;46051;-76
2022/03/17 09:27:38;;;;;;;;;7.50;6.25;;;;;10.27;59.18;102359.00;6271503;22;45520;-78
2022/03/17 09:30:05;;;;;;;;;9.00;7.50;;;;;10.33;59.18;102365.75;6271959;22;45600;-78
2022/03/17 09:35:56;;;;;;;;;8.50;7.00;;;;;10.39;59.19;102381.22;6271050;22;46002;-77
2022/03/17 09:38:22;;;;;;;;;8.00;8.00;;;;;10.40;59.27;102389.03;6271778;22;45707;-77
2022/03/17 09:40:47;;;;;;;;;8.00;7.50;;;;;10.38;58.88;102383.00;6271549;22;45820;-77
2022/03/17 09:43:19;;;;;;;;;8.50;6.75;;;;;10.43;58.82;102391.50;6271161;22;46537;-77
2022/03/17 09:45:51;;;;;;;;;9.00;7.00;;;;;10.45;58.77;102394.09;6270163;22;46035;-77
2022/03/17 09:48:17;;;;;;;;;8.00;8.00;;;;;10.41;58.99;102377.66;6244020;22;45836;-77
2022/03/17 09:50:43;;;;;;;;;11.50;8.50;;;;;10.47;58.99;102395.69;6271002;22;45579;-77
2022/03/17 09:53:09;;;;;;;;;7.25;6.00;;;;;10.48;58.94;102381.69;6269233;22;46743;-78
2022/03/17 09:55:36;;;;;;;;;7.50;7.00;;;;;10.50;58.86;102389.50;6271565;22;46273;-78
2022/03/17 09:58:03;;;;;;;;;12.75;8.00;;;;;10.55;58.80;102410.25;6270961;22;45650;-77
2022/03/17 10:00:47;;;;;;;;;11.00;8.00;;;;;10.55;58.71;102408.50;6269438;22;45610;-79
2022/03/17 10:03:13;;;;;;;;;10.75;8.00;;;;;10.56;58.75;102396.25;6271260;22;45558;-77
2022/03/17 10:05:38;;;;;;;;;7.75;7.25;;;;;10.56;58.87;102401.50;6270457;22;46933;-77
2022/03/17 10:08:04;;;;;;;;;10.00;7.25;;;;;10.55;59.07;102402.41;6270838;22;45766;-77
2022/03/17 10:10:41;;;;;;;;;14.75;10.50;;;;;10.57;59.13;102406.69;6271803;22;45611;-77
2022/03/17 10:13:17;;;;;;;;;8.50;8.00;;;;;10.56;58.96;102397.09;6270778;22;46223;-75
2022/03/17 10:16:04;;;;;;;;;10.00;8.75;;;;;10.61;59.00;102407.38;6270320;22;46989;-77
2022/03/17 10:18:30;;;;;;;;;10.25;7.75;;;;;10.65;58.92;102416.81;6271030;22;45486;-77
2022/03/17 10:21:11;;;;;;;;;13.00;9.25;;;;;10.68;59.01;102430.66;6271564;22;45493;-78
2022/03/17 10:23:48;;;;;;;;;11.25;9.00;;;;;10.68;58.76;102414.94;6270286;22;47642;-78
2022/03/17 10:26:46;;;;;;;;;9.00;9.00;;;;;10.67;58.72;102422.84;6272057;22;46324;-77
2022/03/17 10:29:25;;;;;;;;;15.25;12.00;;;;;10.68;58.50;102432.44;6271883;22;45573;-78
2022/03/17 10:32:05;;;;;;;;;12.50;12.00;;;;;10.68;58.82;102429.81;6272198;22;45509;-78
2022/03/17 10:34:35;;;;;;;;;11.75;9.00;;;;;10.66;58.79;102427.25;6272766;22;46415;-77
2022/03/17 10:37:30;;;;;;;;;11.00;9.00;;;;;10.68;58.13;102428.03;6271015;22;47198;-78
2022/03/17 10:39:57;;;;;;;;;11.00;11.00;;;;;10.67;58.17;102435.97;6268748;22;45746;-77
2022/03/17 10:42:24;;;;;;;;;12.25;10.75;;;;;10.67;57.97;102443.84;6271534;22;45432;-78
2022/03/17 10:44:55;;;;;;;;;9.25;8.00;;;;;10.67;58.07;102444.69;6244260;22;48819;-78
2022/03/17 10:47:50;;;;;;;;;11.50;9.00;;;;;10.69;57.77;102444.63;6273120;22;45980;-79
2022/03/17 10:50:20;;;;;;;;;6.25;6.00;;;;;10.69;57.35;102460.34;6178785;23;45741;-76
2022/03/17 10:52:57;;;;;;;;;10.75;9.50;;;;;10.66;57.57;102457.84;6181567;23;45744;-78
2022/03/17 10:55:30;;;;;;;;;10.25;8.00;;;;;10.66;57.51;102453.47;6188039;23;45757;-77
2022/03/17 10:58:16;;;;;;;;;7.50;7.25;;;;;10.70;57.41;102462.03;6172655;23;46153;-78
2022/03/17 11:03:39;;;;;;;;;12.25;9.00;;;;;10.68;57.49;102456.03;6195878;23;45631;-77
2022/03/17 11:06:06;;;;;;;;;9.50;8.00;;;;;10.73;57.31;102469.78;6190093;23;46208;-76
2022/03/17 11:08:32;;;;;;;;;8.75;7.50;;;;;10.76;57.32;102469.66;6191630;23;45509;-78
2022/03/17 11:10:57;;;;;;;;;8.75;8.50;;;;;10.75;56.97;102462.69;6190679;23;45657;-77
2022/03/17 11:13:26;;;;;;;;;10.75;9.25;;;;;10.78;57.30;102467.81;6189838;23;45674;-77
2022/03/17 11:19:06;;;;;;;;;9.50;8.75;;;;;10.79;56.88;102478.25;6170239;22;45660;-78
2022/03/17 11:21:32;;;;;;;;;9.25;9.00;;;;;10.86;57.09;102471.81;6147765;23;45807;-77
2022/03/17 11:24:05;;;;;;;;;7.00;6.50;;;;;10.86;56.72;102477.06;6147981;23;45588;-77
2022/03/17 11:26:39;;;;;;;;;9.00;7.00;;;;;10.79;56.80;102467.78;6182032;22;45580;-77
2022/03/17 11:29:10;;;;;;;;;8.00;8.00;;;;;10.83;57.09;102479.81;6243202;22;46250;-77
2022/03/17 11:35:09;;;;;;;;;7.50;7.25;;;;;10.86;56.27;102487.53;6242178;22;45480;-77
2022/03/17 11:37:35;;;;;;;;;14.75;9.00;;;;;10.84;56.45;102484.16;6239817;22;46550;-76
2022/03/17 11:40:29;;;;;;;;;10.75;9.00;;;;;10.90;56.45;102499.59;6240934;22;45620;-78
2022/03/17 11:43:07;;;;;;;;;11.00;9.25;;;;;10.88;56.48;102498.84;6117452;23;45664;-77
2022/03/17 11:45:36;;;;;;;;;9.75;8.25;;;;;10.90;56.41;102493.53;6118238;23;45591;-78
2022/03/17 11:51:25;;;;;;;;;11.00;9.50;;;;;10.93;56.41;102496.03;6117872;23;46052;-76
2022/03/17 11:53:50;;;;;;;;;11.75;9.25;;;;;10.97;56.42;102494.09;6117696;23;45646;-77
2022/03/17 11:56:45;;;;;;;;;12.75;10.75;;;;;11.01;56.36;102496.56;6117007;23;45584;-76
2022/03/17 11:59:15;;;;;;;;;7.50;7.50;;;;;11.04;56.05;102501.66;6116906;23;45662;-77
2022/03/17 12:01:42;;;;;;;;;12.00;8.00;;;;;11.03;55.74;102499.09;6117241;23;47575;-76
2022/03/17 12:04:09;;;;;;;;;11.00;9.25;;;;;11.01;55.83;102499.19;6117562;23;45827;-78
2022/03/17 12:06:36;;;;;;;;;11.00;8.00;;;;;11.07;55.42;102508.53;6117993;23;45570;-77
2022/03/17 12:09:02;;;;;;;;;14.25;10.00;;;;;10.92;55.37;102487.28;6117335;23;47344;-77
2022/03/17 12:11:47;;;;;;;;;9.75;9.50;;;;;11.05;55.48;102505.13;6118086;23;46002;-78
2022/03/17 12:14:16;;;;;;;;;9.00;9.00;;;;;11.08;55.41;102518.09;6117191;23;45990;-76
2022/03/17 12:17:03;;;;;;;;;10.00;9.00;;;;;11.05;55.44;102502.50;6117472;23;45691;-78
2022/03/17 12:19:37;;;;;;;;;11.00;10.25;;;;;11.01;55.63;102500.94;6192383;22;45571;-77
2022/03/17 12:22:05;;;;;;;;;12.25;9.00;;;;;11.11;55.37;102507.50;6271215;22;46699;-77
2022/03/17 12:25:02;;;;;;;;;12.00;10.00;;;;;11.11;55.27;102507.50;6271557;22;45734;-77
2022/03/17 12:27:33;;;;;;;;;9.25;8.75;;;;;11.11;55.29;102516.22;6176279;23;46056;-78
2022/03/17 12:30:00;;;;;;;;;10.25;9.75;;;;;11.06;55.29;102505.09;6176871;23;46522;-81
2022/03/17 12:32:28;;;;;;;;;10.75;10.25;;;;;11.01;55.12;102487.84;6176261;23;46550;-78
2022/03/17 12:34:56;;;;;;;;;12.75;12.00;;;;;11.08;55.06;102511.09;6176820;23;45374;-78
2022/03/17 12:37:30;;;;;;;;;15.00;14.00;;;;;11.09;55.08;102509.31;6176761;23;45739;-77
2022/03/17 12:40:01;;;;;;;;;13.00;12.25;;;;;11.03;55.36;102507.81;6176495;23;46299;-76
2022/03/17 12:42:30;;;;;;;;;12.50;11.50;;;;;11.05;55.27;102516.47;6176690;23;46133;-77
2022/03/17 12:45:04;;;;;;;;;14.50;12.00;;;;;11.10;54.95;102522.38;6176731;23;45782;-77
2022/03/17 12:47:34;;;;;;;;;12.00;11.00;;;;;11.04;55.22;102511.28;6176342;23;45536;-78
2022/03/17 12:50:01;;;;;;;;;12.75;11.75;;;;;11.11;55.23;102510.97;6177249;23;46738;-77
2022/03/17 12:52:30;;;;;;;;;12.50;10.00;;;;;11.07;55.13;102496.28;6201818;22;46906;-77
2022/03/17 12:54:58;;;;;;;;;13.25;9.75;;;;;11.12;55.26;102512.66;6176969;23;45704;-78
2022/03/17 12:57:25;;;;;;;;;14.00;12.25;;;;;11.15;55.25;102495.94;6175955;23;45540;-77
2022/03/17 12:59:52;;;;;;;;;10.50;9.25;;;;;11.20;55.40;102502.72;6176593;23;47413;-78